Time;durP1;ratioP1;P1;durP2;ratioP2;P2;SDS_P1;SDS_P2;PMS_P1;PMS_P2;Temp;Humidity;BMP_temperature;BMP_pressure;BME280_temperature;BME280_humidity;BME280_pressure;Samples;Min_cycle;Max_cycle;Signal;HPM_P1;HPM_P2
2022/12/28 00:00:56;;;;;;;7.07;5.10;;;4.60;99.90;;;5.18;100.00;98763.25;5043730;28;20488;-80
2022/12/28 00:03:27;;;;;;;11.77;6.50;;;4.70;99.90;;;5.19;100.00;98754.53;5041264;28;20511;-80
2022/12/28 00:05:57;;;;;;;11.80;5.60;;;4.80;99.90;;;5.16;100.00;98741.84;5036473;28;20462;-80
2022/12/28 00:08:28;;;;;;;9.10;4.20;;;4.60;99.90;;;5.17;100.00;98738.31;5043982;28;20464;-80
2022/12/28 00:11:02;;;;;;;11.03;6.13;;;4.60;99.90;;;5.20;100.00;98745.00;5044786;28;21265;-80
2022/12/28 00:13:39;;;;;;;8.70;5.60;;;4.70;99.90;;;5.19;100.00;98746.75;5044357;28;20472;-80
2022/12/28 00:16:12;;;;;;;8.00;4.70;;;4.70;99.90;;;5.20;100.00;98732.84;5045285;28;20514;-80
2022/12/28 00:18:42;;;;;;;8.40;5.30;;;4.70;99.90;;;5.22;100.00;98720.56;5053105;28;20533;-80
2022/12/28 00:21:13;;;;;;;11.33;5.07;;;4.70;99.90;;;5.25;100.00;98709.09;5051313;28;20462;-80
2022/12/28 00:23:42;;;;;;;8.87;5.20;;;4.80;99.90;;;5.26;100.00;98701.19;5045705;28;20457;-80
2022/12/28 00:26:14;;;;;;;8.80;4.83;;;4.80;99.90;;;5.25;100.00;98702.16;5049922;28;20548;-80
2022/12/28 00:28:45;;;;;;;13.23;6.37;;;4.80;99.90;;;5.28;100.00;98693.25;5046262;28;20480;-79
2022/12/28 00:31:14;;;;;;;9.67;6.17;;;4.90;99.90;;;5.27;100.00;98670.91;5048269;28;20497;-80
2022/12/28 00:33:44;;;;;;;8.80;5.97;;;4.90;99.90;;;5.23;100.00;98679.91;5052255;28;20456;-79
2022/12/28 00:36:15;;;;;;;11.33;6.33;;;4.80;99.90;;;5.26;100.00;98682.22;5048648;28;20528;-80
2022/12/28 00:38:44;;;;;;;8.10;5.60;;;4.90;99.90;;;5.25;100.00;98676.22;5053706;28;20461;-80
2022/12/28 00:41:14;;;;;;;9.50;6.20;;;4.80;99.90;;;5.28;100.00;98662.97;5047603;28;20469;-79
2022/12/28 00:43:46;;;;;;;8.87;5.80;;;4.90;99.90;;;5.29;100.00;98675.00;5048416;28;20461;-80
2022/12/28 00:46:16;;;;;;;11.20;5.70;;;4.90;99.90;;;5.31;100.00;98667.88;5046192;28;20485;-79
2022/12/28 00:48:46;;;;;;;12.30;5.43;;;5.00;99.90;;;5.30;100.00;98668.84;5047542;28;20501;-80
2022/12/28 00:51:18;;;;;;;14.53;6.73;;;4.90;99.90;;;5.30;100.00;98655.91;5046858;28;20457;-80
2022/12/28 00:53:48;;;;;;;9.87;5.90;;;4.90;99.90;;;5.32;100.00;98653.16;5049236;28;20464;-80
2022/12/28 00:56:20;;;;;;;9.63;5.90;;;4.80;99.90;;;5.34;100.00;98656.44;5052003;28;20487;-80
2022/12/28 00:58:56;;;;;;;9.37;6.10;;;4.90;99.90;;;5.32;100.00;98653.97;5048287;28;20538;-80
2022/12/28 01:01:28;;;;;;;21.53;5.77;;;4.90;99.90;;;5.32;100.00;98660.94;5047886;28;20542;-80
2022/12/28 01:03:58;;;;;;;11.50;5.70;;;4.80;99.90;;;5.32;100.00;98648.78;5048687;28;20496;-80
2022/12/28 01:06:29;;;;;;;8.80;5.97;;;4.90;99.90;;;5.33;100.00;98650.44;5047453;28;21268;-80
2022/12/28 01:09:00;;;;;;;12.90;6.03;;;4.90;99.90;;;5.32;100.00;98653.16;5048038;28;20460;-80
2022/12/28 01:11:31;;;;;;;6.93;5.63;;;4.80;99.90;;;5.33;100.00;98653.03;5049235;28;20464;-80
2022/12/28 01:14:02;;;;;;;8.80;6.00;;;4.90;99.90;;;5.31;100.00;98651.53;5045529;28;20457;-79
2022/12/28 01:16:35;;;;;;;10.10;6.27;;;4.90;99.90;;;5.31;100.00;98641.16;5046715;28;20471;-80
2022/12/28 01:19:08;;;;;;;13.67;6.93;;;4.80;99.90;;;5.33;100.00;98636.63;5048943;28;20469;-80
2022/12/28 01:21:38;;;;;;;9.83;6.30;;;4.90;99.90;;;5.36;100.00;98634.59;5050417;28;20805;-80
2022/12/28 01:24:10;;;;;;;12.00;5.40;;;4.90;99.90;;;5.38;100.00;98622.28;5046562;28;20543;-80
2022/12/28 01:26:40;;;;;;;12.60;6.43;;;4.90;99.90;;;5.39;100.00;98618.75;5047610;28;20947;-79
2022/12/28 01:29:11;;;;;;;9.77;6.20;;;5.00;99.90;;;5.40;100.00;98622.97;5050478;28;20484;-80
2022/12/28 01:31:41;;;;;;;10.23;5.97;;;4.90;99.90;;;5.42;100.00;98641.78;5046448;28;20465;-80
2022/12/28 01:34:12;;;;;;;12.33;6.00;;;4.90;99.90;;;5.42;100.00;98636.63;5048028;28;20552;-79
2022/12/28 01:36:42;;;;;;;9.67;5.80;;;4.90;99.90;;;5.43;100.00;98630.47;5048729;28;20463;-79
2022/12/28 01:39:12;;;;;;;10.97;6.70;;;4.90;99.90;;;5.45;100.00;98649.28;5045449;28;20472;-79
2022/12/28 01:41:42;;;;;;;7.90;5.83;;;4.90;99.90;;;5.47;100.00;98637.03;5047126;28;20894;-79
2022/12/28 01:44:47;;;;;;;10.43;6.00;;;4.90;99.90;;;5.48;100.00;98628.25;5048700;28;20958;-80
2022/12/28 01:47:23;;;;;;;10.40;5.90;;;5.00;99.90;;;5.48;100.00;98614.50;5052771;28;20475;-80
2022/12/28 01:50:03;;;;;;;11.13;6.33;;;5.00;99.90;;;5.49;100.00;98606.56;5050569;28;20549;-80
2022/12/28 01:52:41;;;;;;;7.63;5.40;;;5.00;99.90;;;5.49;100.00;98605.75;5053643;28;20907;-80
2022/12/28 01:55:15;;;;;;;13.80;7.00;;;5.00;99.90;;;5.49;100.00;98598.78;5051302;28;20472;-79
2022/12/28 01:57:52;;;;;;;11.97;6.60;;;5.00;99.90;;;5.52;100.00;98601.09;5046855;28;20472;-79
2022/12/28 02:00:23;;;;;;;11.33;7.03;;;5.10;99.90;;;5.50;100.00;98600.44;5053557;28;20498;-80
2022/12/28 02:02:59;;;;;;;13.93;7.07;;;5.00;99.90;;;5.54;100.00;98593.19;5047726;28;20468;-80
2022/12/28 02:05:35;;;;;;;11.27;7.10;;;5.10;99.90;;;5.56;100.00;98602.44;5047955;28;21065;-79
2022/12/28 02:08:11;;;;;;;12.30;8.23;;;5.10;99.90;;;5.58;100.00;98599.72;5049879;28;20559;-80
2022/12/28 02:10:42;;;;;;;16.30;8.40;;;5.20;99.90;;;5.56;100.00;98599.84;5048650;28;20473;-80
2022/12/28 02:13:17;;;;;;;11.57;7.90;;;5.20;99.90;;;5.57;100.00;98580.75;5044533;28;21022;-80
2022/12/28 02:15:48;;;;;;;14.80;8.07;;;5.20;99.90;;;5.61;100.00;98576.09;5048255;28;20476;-80
2022/12/28 02:18:20;;;;;;;13.50;8.13;;;5.20;99.90;;;5.63;100.00;98562.97;5044435;28;20470;-80
2022/12/28 02:21:36;;;;;;;13.67;8.37;;;5.30;99.90;;;5.67;100.00;98557.34;5043226;28;20454;-80
2022/12/28 02:25:02;;;;;;;17.07;7.80;;;5.30;99.90;;;5.68;100.00;98555.59;5047184;28;20480;-80
2022/12/28 02:28:02;;;;;;;19.33;8.57;;;5.30;99.90;;;5.68;100.00;98550.41;5043101;28;20518;-80
2022/12/28 02:30:42;;;;;;;12.67;8.27;;;5.30;99.90;;;5.69;100.00;98549.44;5046198;28;20542;-80
2022/12/28 02:33:24;;;;;;;19.57;7.77;;;5.30;99.90;;;5.72;100.00;98543.97;5046345;28;20468;-80
2022/12/28 02:36:01;;;;;;;13.50;8.40;;;5.30;99.90;;;5.74;100.00;98545.44;5040997;28;20465;-80
2022/12/28 02:38:39;;;;;;;12.23;8.87;;;5.40;99.90;;;5.74;100.00;98539.44;5045791;28;20482;-80
2022/12/28 02:41:14;;;;;;;11.70;7.60;;;5.30;99.90;;;5.76;100.00;98542.72;5044646;28;20465;-79
2022/12/28 02:43:44;;;;;;;14.80;7.97;;;5.30;99.90;;;5.77;100.00;98536.56;5042299;28;20493;-80
2022/12/28 02:52:21;;;;;;;18.50;8.10;;;5.50;99.90;;;5.84;100.00;98533.22;5043718;28;20473;-80
2022/12/28 02:58:54;;;;;;;18.07;8.37;;;5.50;99.90;;;5.89;100.00;98527.66;5050595;28;20820;-80
2022/12/28 03:01:56;;;;;;;15.87;6.87;;;5.50;99.90;;;5.91;100.00;98510.97;5047805;28;20465;-80
2022/12/28 03:04:38;;;;;;;14.07;7.13;;;5.60;99.90;;;5.91;100.00;98505.78;5045500;28;20463;-79
2022/12/28 03:10:33;;;;;;;8.80;6.40;;;5.60;99.90;;;5.95;100.00;98491.53;4994743;28;20458;-79
2022/12/28 03:13:41;;;;;;;6.97;5.77;;;5.60;99.90;;;5.99;100.00;98484.28;4993526;28;20456;-80
2022/12/28 03:16:09;;;;;;;7.50;5.80;;;5.60;99.90;;;6.04;100.00;98487.25;5032447;28;20461;-80
2022/12/28 03:32:52;;;;;;;6.87;5.03;;;5.70;99.90;;;6.17;100.00;98466.94;5040257;28;20457;-80
2022/12/28 03:35:44;;;;;;;9.10;5.73;;;5.80;99.90;;;6.17;100.00;98464.34;5042591;28;20465;-80
2022/12/28 03:38:26;;;;;;;9.83;5.60;;;5.80;99.90;;;6.20;100.00;98458.03;5042461;28;20512;-80
2022/12/28 03:41:06;;;;;;;7.17;5.53;;;5.80;99.90;;;6.24;100.00;98460.19;5040330;28;20466;-80
2022/12/28 03:43:44;;;;;;;10.00;4.50;;;5.90;99.90;;;6.27;100.00;98451.28;5044069;28;20619;-79
2022/12/28 03:46:21;;;;;;;6.33;4.80;;;6.00;99.90;;;6.26;100.00;98458.25;5045034;28;21046;-80
2022/12/28 03:48:53;;;;;;;10.83;5.00;;;5.90;99.90;;;6.28;100.00;98452.91;5046700;28;20461;-80
2022/12/28 03:51:27;;;;;;;20.17;4.93;;;5.90;99.90;;;6.31;100.00;98455.22;5048999;28;20464;-80
2022/12/28 03:53:58;;;;;;;5.37;4.67;;;5.90;99.90;;;6.34;100.00;98450.53;5046654;28;20548;-80
2022/12/28 03:56:29;;;;;;;9.30;4.90;;;6.00;99.90;;;6.37;100.00;98441.63;5043347;28;20458;-79
2022/12/28 03:58:59;;;;;;;5.60;4.30;;;6.00;99.90;;;6.39;100.00;98444.88;5043427;28;20461;-80
2022/12/28 04:01:28;;;;;;;13.23;3.27;;;6.10;99.90;;;6.43;100.00;98439.22;5044609;28;20849;-80
2022/12/28 04:03:59;;;;;;;9.37;4.70;;;6.10;99.90;;;6.45;100.00;98452.06;5043822;28;20477;-80
2022/12/28 04:06:30;;;;;;;4.90;3.87;;;6.20;99.90;;;6.46;100.00;98444.13;5046354;28;20549;-79
2022/12/28 04:09:00;;;;;;;4.00;3.60;;;6.10;99.90;;;6.48;100.00;98436.19;5045060;28;20500;-80
2022/12/28 04:11:30;;;;;;;5.13;3.33;;;6.10;99.90;;;6.50;100.00;98432.47;5046963;28;20707;-76
2022/12/28 04:13:59;;;;;;;8.07;3.63;;;6.20;99.90;;;6.54;100.00;98432.97;5041598;28;20468;-80
2022/12/28 04:16:37;;;;;;;4.07;3.27;;;6.20;99.90;;;6.56;100.00;98431.84;5045106;28;20500;-81
2022/12/28 04:19:09;;;;;;;7.23;4.03;;;6.20;99.90;;;6.56;100.00;98424.06;5041932;28;20464;-80
2022/12/28 04:21:40;;;;;;;8.97;3.30;;;6.20;99.90;;;6.61;100.00;98425.38;5043804;28;20887;-80
2022/12/28 04:24:10;;;;;;;4.70;2.80;;;6.20;99.90;;;6.66;100.00;98443.94;5041869;28;20519;-80
2022/12/28 04:26:39;;;;;;;14.37;4.93;;;6.30;99.90;;;6.64;100.00;98425.91;5041306;28;20947;-76
2022/12/28 04:29:10;;;;;;;6.50;3.33;;;6.30;99.90;;;6.65;100.00;98422.34;5037786;28;20482;-80
2022/12/28 04:31:40;;;;;;;3.33;3.03;;;6.20;99.90;;;6.67;100.00;98427.38;5048881;28;20514;-79
2022/12/28 04:34:10;;;;;;;4.20;3.20;;;6.30;99.90;;;6.68;100.00;98419.44;5046501;28;20830;-79
2022/12/28 04:36:41;;;;;;;12.07;3.17;;;6.40;99.90;;;6.72;100.00;98412.97;5044336;28;20958;-79
2022/12/28 04:39:11;;;;;;;7.07;2.93;;;6.40;99.90;;;6.73;100.00;98414.59;5044632;28;20484;-80
2022/12/28 04:41:41;;;;;;;12.70;3.33;;;6.40;99.90;;;6.74;100.00;98402.41;5041769;28;20502;-79
2022/12/28 04:44:10;;;;;;;6.60;2.60;;;6.30;99.90;;;6.77;100.00;98408.09;5044536;28;20552;-80
2022/12/28 04:46:41;;;;;;;4.60;2.73;;;6.40;99.90;;;6.79;100.00;98397.56;5043202;28;20524;-79
2022/12/28 04:49:11;;;;;;;3.80;2.40;;;6.40;99.90;;;6.81;100.00;98380.84;5040588;28;20458;-81
2022/12/28 04:51:42;;;;;;;5.50;2.80;;;6.50;99.90;;;6.79;100.00;98389.78;5041058;28;20979;-80
2022/12/28 04:54:13;;;;;;;6.33;2.80;;;6.40;99.90;;;6.79;100.00;98388.00;5045385;28;20505;-80
2022/12/28 04:56:43;;;;;;;3.40;2.43;;;6.40;99.90;;;6.82;100.00;98387.69;5036796;28;20473;-79
2022/12/28 04:59:14;;;;;;;5.60;2.50;;;6.50;99.90;;;6.82;100.00;98392.88;5041561;28;20456;-80
2022/12/28 05:01:43;;;;;;;5.40;2.73;;;6.40;99.90;;;6.85;100.00;98387.38;5043930;28;20543;-80
2022/12/28 05:04:13;;;;;;;5.20;2.50;;;6.50;99.90;;;6.87;100.00;98380.22;5045590;28;20472;-80
2022/12/28 05:06:45;;;;;;;12.50;2.50;;;6.50;99.90;;;6.87;100.00;98382.03;5050575;28;20590;-80
2022/12/28 05:09:18;;;;;;;6.50;2.00;;;6.40;99.90;;;6.92;100.00;98377.16;5049006;28;20535;-80
2022/12/28 05:11:47;;;;;;;3.30;2.17;;;6.60;99.90;;;6.91;100.00;98365.94;5046613;28;21050;-81
2022/12/28 05:14:17;;;;;;;7.37;2.07;;;6.60;99.90;;;6.96;100.00;98357.69;5047495;28;20472;-80
2022/12/28 05:16:51;;;;;;;3.30;1.83;;;6.60;99.90;;;6.97;100.00;98359.31;5046718;28;20528;-79
2022/12/28 05:19:20;;;;;;;5.93;2.10;;;6.60;99.90;;;6.97;100.00;98356.72;5045739;28;20958;-80
2022/12/28 05:21:53;;;;;;;4.30;1.80;;;6.60;99.90;;;6.97;100.00;98354.13;5050829;28;20551;-80
2022/12/28 05:24:23;;;;;;;3.10;2.07;;;6.60;99.90;;;6.99;100.00;98349.56;5047496;28;21060;-80
2022/12/28 05:26:53;;;;;;;5.50;2.10;;;6.70;99.90;;;7.02;100.00;98354.44;5048296;28;21124;-80
2022/12/28 05:29:23;;;;;;;3.53;1.20;;;6.70;99.90;;;7.03;100.00;98356.09;5047561;28;20568;-80
2022/12/28 05:31:53;;;;;;;10.50;2.10;;;6.70;99.90;;;7.05;100.00;98351.53;5043976;28;20469;-81
2022/12/28 05:34:22;;;;;;;3.37;1.50;;;6.70;99.90;;;7.05;100.00;98349.75;5045527;28;20469;-80
2022/12/28 05:36:53;;;;;;;8.23;1.80;;;6.70;99.90;;;7.05;100.00;98354.13;5047461;28;20891;-81
2022/12/28 05:39:23;;;;;;;3.50;2.23;;;6.70;99.90;;;7.04;100.00;98360.31;5046235;28;20491;-80
2022/12/28 05:41:53;;;;;;;3.50;1.77;;;6.60;99.90;;;7.05;100.00;98351.53;5047055;28;20500;-80
2022/12/28 05:44:23;;;;;;;3.53;1.80;;;6.60;99.90;;;7.05;100.00;98364.53;5045744;28;20464;-80
2022/12/28 05:46:53;;;;;;;5.13;3.00;;;6.60;99.90;;;7.09;100.00;98358.06;5044216;28;20497;-80
2022/12/28 05:49:23;;;;;;;5.83;2.13;;;6.70;99.90;;;7.09;100.00;98356.28;5045494;28;20534;-80
2022/12/28 05:51:55;;;;;;;3.37;1.77;;;6.70;99.90;;;7.07;100.00;98358.22;5041434;28;20465;-80
2022/12/28 05:54:25;;;;;;;4.13;1.80;;;6.60;99.90;;;7.11;100.00;98356.13;5046761;28;20457;-80
2022/12/28 05:56:56;;;;;;;3.80;1.60;;;6.70;99.90;;;7.11;100.00;98361.34;5047332;28;21028;-80
2022/12/28 05:59:25;;;;;;;2.40;1.50;;;6.70;99.90;;;7.14;100.00;98355.81;5046185;28;20500;-80
2022/12/28 06:01:56;;;;;;;2.17;1.50;;;6.80;99.90;;;7.13;100.00;98361.97;5045284;28;20471;-80
2022/12/28 06:04:26;;;;;;;4.93;1.97;;;6.70;99.90;;;7.13;100.00;98359.38;5049589;28;20507;-80
2022/12/28 06:06:57;;;;;;;3.80;1.60;;;6.70;99.90;;;7.15;100.00;98349.63;5046336;28;20488;-80
2022/12/28 06:09:28;;;;;;;5.67;1.70;;;6.80;99.90;;;7.15;100.00;98354.81;5046048;28;20463;-80
2022/12/28 06:11:58;;;;;;;5.33;2.17;;;6.70;99.90;;;7.20;100.00;98349.97;5047785;28;20457;-79
2022/12/28 06:14:29;;;;;;;2.20;1.43;;;6.90;99.90;;;7.21;100.00;98348.19;5048005;28;20460;-79
2022/12/28 06:16:58;;;;;;;1.60;1.50;;;6.90;99.90;;;7.17;100.00;98344.28;5046051;28;20477;-79
2022/12/28 06:19:27;;;;;;;4.50;1.80;;;6.80;99.90;;;7.17;100.00;98344.28;5048110;28;20524;-79
2022/12/28 06:21:59;;;;;;;2.33;1.40;;;6.70;99.90;;;7.22;100.00;98336.81;5043736;28;20457;-79
2022/12/28 06:24:28;;;;;;;4.27;1.60;;;6.80;99.90;;;7.18;100.00;98336.31;5046610;28;20485;-80
2022/12/28 06:26:58;;;;;;;2.23;1.50;;;6.70;99.90;;;7.20;100.00;98325.75;5045991;28;20522;-80
2022/12/28 06:29:28;;;;;;;11.73;1.70;;;6.80;99.90;;;7.22;100.00;98329.81;5044675;28;20488;-79
2022/12/28 06:32:00;;;;;;;7.83;1.70;;;6.80;99.90;;;7.23;100.00;98318.44;5044708;28;20470;-80
2022/12/28 06:34:30;;;;;;;1.80;1.57;;;6.80;99.90;;;7.26;100.00;98307.72;5047311;28;20456;-79
2022/12/28 06:37:01;;;;;;;2.40;1.50;;;6.90;99.90;;;7.22;100.00;98305.63;5044202;28;20535;-80
2022/12/28 06:39:31;;;;;;;3.03;1.40;;;6.80;99.90;;;7.18;100.00;98307.72;5044241;28;21193;-80
2022/12/28 06:42:02;;;;;;;3.23;1.33;;;6.70;99.90;;;7.21;100.00;98299.59;5046390;28;20548;-80
2022/12/28 06:44:31;;;;;;;3.80;1.47;;;6.80;99.90;;;7.21;100.00;98310.00;5044503;28;20488;-80
2022/12/28 06:47:04;;;;;;;7.03;1.63;;;6.70;99.90;;;7.27;100.00;98304.16;5048458;28;20986;-80
2022/12/28 06:49:34;;;;;;;1.17;1.07;;;6.90;99.90;;;7.28;100.00;98290.19;5041364;28;20486;-80
2022/12/28 06:52:04;;;;;;;2.63;1.73;;;6.90;99.90;;;7.28;100.00;98305.78;5043944;28;20489;-80
2022/12/28 06:54:33;;;;;;;3.53;1.43;;;6.90;99.90;;;7.25;100.00;98295.72;5048920;28;20544;-80
2022/12/28 06:57:03;;;;;;;6.27;1.63;;;6.90;99.90;;;7.30;100.00;98293.44;5043256;28;20505;-79
2022/12/28 06:59:32;;;;;;;2.73;1.80;;;6.90;99.90;;;7.30;100.00;98288.22;5044337;28;20527;-80
2022/12/28 07:02:02;;;;;;;4.70;1.80;;;7.00;99.90;;;7.31;100.00;98283.84;5048392;28;20516;-80
2022/12/28 07:04:32;;;;;;;7.10;1.80;;;7.00;99.90;;;7.32;100.00;98290.69;5046122;28;20441;-80
2022/12/28 07:07:03;;;;;;;3.57;1.50;;;7.00;99.90;;;7.29;100.00;98291.78;5040538;28;20458;-80
2022/12/28 07:09:33;;;;;;;9.10;1.80;;;6.90;99.90;;;7.26;100.00;98286.09;5046217;28;20460;-79
2022/12/28 07:12:03;;;;;;;5.13;2.20;;;6.80;99.90;;;7.31;100.00;98284.66;5042729;28;20475;-79
2022/12/28 07:14:32;;;;;;;2.80;1.60;;;6.90;99.90;;;7.29;100.00;98289.19;5045557;28;20487;-80
2022/12/28 07:17:02;;;;;;;5.57;1.97;;;6.90;99.90;;;7.34;100.00;98283.50;5047272;28;21040;-80
2022/12/28 07:19:31;;;;;;;10.83;1.90;;;7.00;99.90;;;7.31;100.00;98278.63;5042909;28;20560;-79
2022/12/28 07:22:03;;;;;;;2.33;1.83;;;6.90;99.90;;;7.33;100.00;98281.88;5042576;28;20468;-79
2022/12/28 07:24:33;;;;;;;3.07;1.77;;;6.90;99.90;;;7.36;100.00;98284.97;5044091;28;20461;-79
2022/12/28 07:27:03;;;;;;;4.43;1.93;;;7.00;99.90;;;7.34;100.00;98281.72;5044086;28;20458;-80
2022/12/28 07:29:32;;;;;;;2.27;1.40;;;6.90;99.90;;;7.36;100.00;98278.94;5045855;28;20829;-79
2022/12/28 07:32:03;;;;;;;3.53;1.73;;;7.00;99.90;;;7.39;100.00;98278.66;5044048;28;20548;-80
2022/12/28 07:34:34;;;;;;;3.97;1.90;;;7.00;99.90;;;7.32;100.00;98281.09;5041954;28;21120;-79
2022/12/28 07:37:06;;;;;;;9.90;1.37;;;6.90;99.90;;;7.34;100.00;98279.13;5049623;28;20474;-80
2022/12/28 07:39:36;;;;;;;7.83;1.63;;;6.90;99.90;;;7.37;100.00;98284.00;5044662;28;20465;-80
2022/12/28 07:42:09;;;;;;;2.37;1.67;;;6.90;99.90;;;7.40;100.00;98283.69;5043908;28;21333;-80
2022/12/28 07:44:41;;;;;;;3.67;1.90;;;7.00;99.90;;;7.40;100.00;98277.66;5048347;28;20457;-79
2022/12/28 07:47:17;;;;;;;8.97;2.77;;;7.00;99.90;;;7.40;100.00;98277.66;5043795;28;20468;-79
2022/12/28 07:49:47;;;;;;;1.67;1.50;;;7.00;99.90;;;7.41;100.00;98277.50;5044503;28;20462;-80
2022/12/28 07:52:19;;;;;;;3.10;2.10;;;6.90;99.90;;;7.42;100.00;98276.53;5046291;28;20548;-80
2022/12/28 07:54:49;;;;;;;1.80;1.63;;;7.00;99.90;;;7.42;100.00;98291.34;5046470;28;20492;-80
2022/12/28 07:57:19;;;;;;;2.90;1.90;;;7.00;99.90;;;7.44;100.00;98282.38;5045005;28;20466;-80
2022/12/28 07:59:48;;;;;;;4.90;2.20;;;7.10;99.90;;;7.45;100.00;98284.03;5044051;28;20457;-79
2022/12/28 08:02:17;;;;;;;3.07;2.60;;;7.10;99.90;;;7.46;100.00;98272.63;5046364;28;20492;-80
2022/12/28 08:04:46;;;;;;;4.50;2.73;;;7.10;99.90;;;7.47;100.00;98286.44;5045048;28;20503;-79
2022/12/28 08:07:21;;;;;;;2.97;2.40;;;7.10;99.90;;;7.39;100.00;98287.25;5045718;28;20471;-80
2022/12/28 08:09:51;;;;;;;3.50;2.60;;;7.00;99.90;;;7.41;100.00;98279.28;5045077;28;20484;-80
2022/12/28 08:12:20;;;;;;;5.53;3.73;;;7.00;99.90;;;7.43;100.00;98288.56;5042407;28;20867;-79
2022/12/28 08:14:50;;;;;;;3.77;3.00;;;7.10;99.90;;;7.43;100.00;98285.97;5044740;28;20887;-79
2022/12/28 08:17:20;;;;;;;4.27;3.00;;;7.00;99.90;;;7.44;100.00;98273.78;5044071;28;20474;-80
2022/12/28 08:19:50;;;;;;;3.60;2.70;;;7.10;99.90;;;7.39;100.00;98279.44;5043223;28;20662;-80
2022/12/28 08:22:22;;;;;;;5.00;3.50;;;7.00;99.90;;;7.36;100.00;98261.56;5045093;28;20478;-79
2022/12/28 08:24:51;;;;;;;6.90;3.10;;;6.90;99.90;;;7.41;100.00;98269.72;5045072;28;20635;-80
2022/12/28 08:27:22;;;;;;;4.90;2.63;;;7.00;99.90;;;7.42;100.00;98263.53;5044999;28;20511;-79
2022/12/28 08:29:53;;;;;;;3.80;3.43;;;7.10;99.90;;;7.39;100.00;98265.66;5043376;28;20507;-79
2022/12/28 08:32:23;;;;;;;7.37;2.93;;;6.90;99.90;;;7.43;100.00;98266.94;5043909;28;20473;-80
2022/12/28 08:34:53;;;;;;;3.37;3.07;;;7.00;99.90;;;7.44;100.00;98264.19;5043144;28;20579;-80
2022/12/28 08:37:25;;;;;;;6.17;3.00;;;7.10;99.90;;;7.45;100.00;98265.81;5045170;28;20552;-79
2022/12/28 08:39:55;;;;;;;4.33;3.10;;;7.10;99.90;;;7.44;100.00;98258.97;5047036;28;20845;-80
2022/12/28 08:42:25;;;;;;;7.20;3.03;;;7.00;99.90;;;7.44;100.00;98263.38;5047320;28;20468;-80
2022/12/28 08:44:55;;;;;;;4.20;3.17;;;7.00;99.90;;;7.46;100.00;98256.22;5046133;28;20503;-80
2022/12/28 08:47:25;;;;;;;4.80;3.20;;;7.10;99.90;;;7.47;100.00;98257.84;5049560;28;20501;-79
2022/12/28 08:49:55;;;;;;;4.90;2.77;;;7.10;99.90;;;7.48;100.00;98260.28;5046298;28;20532;-79
2022/12/28 08:52:27;;;;;;;3.97;3.20;;;7.10;99.90;;;7.48;100.00;98268.09;5046778;28;20477;-79
2022/12/28 08:54:57;;;;;;;3.27;2.97;;;7.10;99.90;;;7.41;100.00;98258.47;5048273;28;20810;-79
2022/12/28 08:57:26;;;;;;;7.13;3.00;;;7.00;99.90;;;7.42;100.00;98260.94;5047973;28;20519;-79
2022/12/28 08:59:55;;;;;;;5.57;3.23;;;7.10;99.90;;;7.44;100.00;98264.19;5045422;28;20501;-79
2022/12/28 09:02:24;;;;;;;3.03;2.60;;;7.10;99.90;;;7.45;100.00;98260.63;5047113;28;21121;-79
2022/12/28 09:04:54;;;;;;;4.67;3.07;;;7.10;99.90;;;7.48;100.00;98262.88;5046457;28;20972;-80
2022/12/28 09:07:26;;;;;;;3.60;3.23;;;7.10;99.90;;;7.49;100.00;98269.72;5045739;28;20461;-80
2022/12/28 09:09:57;;;;;;;4.23;2.40;;;7.10;99.90;;;7.50;100.00;98273.94;5048574;28;20860;-79
2022/12/28 09:12:26;;;;;;;8.63;3.13;;;7.20;99.90;;;7.49;100.00;98276.72;5044792;28;20570;-80
2022/12/28 09:14:56;;;;;;;14.43;3.07;;;7.10;99.90;;;7.47;100.00;98274.25;5046865;28;20493;-79
2022/12/28 09:17:26;;;;;;;3.70;2.27;;;7.10;99.90;;;7.47;100.00;98273.44;5045344;28;20462;-80
2022/12/28 09:19:55;;;;;;;6.23;2.57;;;7.00;99.90;;;7.48;100.00;98257.69;5045328;28;21022;-80
2022/12/28 09:22:26;;;;;;;9.00;2.73;;;7.10;99.90;;;7.52;100.00;98260.78;5042982;28;20470;-80
2022/12/28 09:24:56;;;;;;;6.60;3.23;;;7.20;99.90;;;7.53;100.00;98255.38;5049043;28;20612;-80
2022/12/28 09:27:27;;;;;;;4.23;2.93;;;7.10;99.90;;;7.54;100.00;98259.63;5050613;28;20484;-79
2022/12/28 09:29:57;;;;;;;4.70;2.23;;;7.20;99.90;;;7.55;100.00;98261.25;5047639;28;20496;-79
2022/12/28 09:32:27;;;;;;;2.93;2.57;;;7.20;99.90;;;7.50;100.00;98258.31;5046736;28;20475;-79
2022/12/28 09:34:56;;;;;;;5.63;2.37;;;7.10;99.90;;;7.56;100.00;98269.88;5047318;28;20457;-80
2022/12/28 09:37:28;;;;;;;7.67;2.40;;;7.20;99.90;;;7.58;100.00;98260.94;5045466;28;20461;-79
2022/12/28 09:39:58;;;;;;;4.03;2.20;;;7.20;99.90;;;7.57;100.00;98267.09;5048344;28;20460;-78
2022/12/28 09:42:30;;;;;;;2.37;2.07;;;7.20;99.90;;;7.61;100.00;98275.41;5047736;28;20883;-78
2022/12/28 09:45:04;;;;;;;3.00;2.00;;;7.20;99.90;;;7.62;100.00;98274.44;5048795;28;20978;-78
2022/12/28 09:47:40;;;;;;;3.80;2.70;;;7.20;99.90;;;7.63;100.00;98268.25;5044214;28;21042;-79
2022/12/28 09:50:30;;;;;;;3.33;2.43;;;7.30;99.90;;;7.63;100.00;98267.44;5044019;28;20480;-79
2022/12/28 09:53:29;;;;;;;2.90;2.20;;;7.30;99.90;;;7.59;100.00;98266.97;5047591;28;20966;-79
2022/12/28 09:56:05;;;;;;;3.10;2.27;;;7.20;99.90;;;7.59;100.00;98259.97;5044665;28;21041;-79
2022/12/28 09:58:43;;;;;;;4.27;2.30;;;7.20;99.90;;;7.57;100.00;98269.72;5046189;28;20462;-79
2022/12/28 10:01:21;;;;;;;5.33;2.60;;;7.20;99.90;;;7.64;100.00;98263.84;5047330;28;20462;-78
2022/12/28 10:03:51;;;;;;;8.97;3.07;;;7.30;99.90;;;7.66;100.00;98262.72;5044466;28;21309;-79
2022/12/28 10:06:25;;;;;;;3.97;2.13;;;7.30;99.90;;;7.62;100.00;98268.41;5045856;28;20468;-78
2022/12/28 10:09:00;;;;;;;6.70;2.83;;;7.20;99.90;;;7.60;100.00;98269.38;5046765;28;20512;-79
2022/12/28 10:11:34;;;;;;;12.83;2.00;;;7.10;99.90;;;7.68;100.00;98259.94;5042502;28;20578;-79
2022/12/28 10:14:18;;;;;;;3.80;2.60;;;7.20;99.90;;;7.62;100.00;98265.81;5044205;28;21046;-78
2022/12/28 10:16:48;;;;;;;4.83;3.27;;;7.20;99.90;;;7.60;100.00;98253.75;5045845;28;20471;-78
2022/12/28 10:19:23;;;;;;;5.07;2.53;;;7.20;99.90;;;7.65;100.00;98239.47;5044758;28;21334;-78
2022/12/28 10:22:01;;;;;;;2.63;2.43;;;7.30;99.90;;;7.67;100.00;98248.72;5045156;28;20574;-78
2022/12/28 10:24:32;;;;;;;4.90;2.40;;;7.30;99.90;;;7.72;100.00;98240.44;5045993;28;20564;-78
2022/12/28 10:27:06;;;;;;;5.30;2.37;;;7.30;99.90;;;7.76;100.00;98226.13;5044512;28;20461;-78
2022/12/28 10:29:36;;;;;;;5.63;2.43;;;7.40;99.90;;;7.73;100.00;98226.44;5046914;28;20589;-78
2022/12/28 10:32:10;;;;;;;2.30;2.10;;;7.30;99.90;;;7.74;100.00;98221.06;5041997;28;20474;-78
2022/12/28 10:34:57;;;;;;;3.77;2.30;;;7.30;99.90;;;7.75;100.00;98214.06;5041496;28;20517;-80
2022/12/28 10:37:32;;;;;;;3.13;2.83;;;7.30;99.90;;;7.74;100.00;98220.28;5046812;28;20460;-79
2022/12/28 10:40:16;;;;;;;7.10;2.63;;;7.30;99.90;;;7.71;100.00;98210.97;5042186;28;20470;-78
2022/12/28 10:42:54;;;;;;;3.40;2.50;;;7.20;99.90;;;7.79;100.00;98204.97;5043184;28;20461;-78
2022/12/28 10:45:35;;;;;;;2.33;2.10;;;7.40;99.90;;;7.83;100.00;98211.47;5044139;28;20450;-78
2022/12/28 10:48:14;;;;;;;8.03;3.70;;;7.40;99.90;;;7.82;100.00;98215.03;5039091;28;21026;-78
2022/12/28 10:50:51;;;;;;;3.70;2.57;;;7.40;99.90;;;7.82;100.00;98204.63;5048326;28;20497;-79
2022/12/28 10:53:30;;;;;;;3.07;2.20;;;7.40;99.90;;;7.82;100.00;98204.63;5041931;28;20468;-79
2022/12/28 10:56:15;;;;;;;7.27;3.30;;;7.40;99.90;;;7.79;100.00;98197.97;5046380;28;20465;-79
2022/12/28 10:58:48;;;;;;;3.37;2.50;;;7.40;99.90;;;7.82;100.00;98194.22;5046452;28;20472;-79
2022/12/28 11:01:23;;;;;;;4.90;2.70;;;7.40;99.90;;;7.78;100.00;98180.72;5043145;28;20494;-79
2022/12/28 11:04:03;;;;;;;7.70;3.07;;;7.30;99.90;;;7.80;100.00;98177.97;5044005;28;20773;-79
2022/12/28 11:06:36;;;;;;;5.03;2.70;;;7.40;99.90;;;7.84;100.00;98172.25;5045897;28;21558;-79
2022/12/28 11:09:21;;;;;;;4.17;2.53;;;7.40;99.90;;;7.88;100.00;98170.94;5043197;28;20492;-78
2022/12/28 11:11:56;;;;;;;4.57;2.63;;;7.50;99.90;;;7.91;100.00;98162.00;5045287;28;20470;-79
2022/12/28 11:14:32;;;;;;;2.83;2.40;;;7.60;99.90;;;7.93;100.00;98154.81;5043381;28;20496;-79
2022/12/28 11:17:17;;;;;;;2.67;2.47;;;7.60;99.90;;;7.96;100.00;98157.06;5043690;28;20468;-79